Time;durP1;ratioP1;P1;durP2;ratioP2;P2;SDS_P1;SDS_P2;PMS_P1;PMS_P2;Temp;Humidity;BMP_temperature;BMP_pressure;BME280_temperature;BME280_humidity;BME280_pressure;Samples;Min_cycle;Max_cycle;Signal;HPM_P1;HPM_P2
2023/08/08 00:01:13;;;;;;;11.90;2.90;;;;;;;;;;4894925;29;20052;-73
2023/08/08 00:03:39;;;;;;;27.75;3.25;;;;;;;;;;4892942;29;20048;-73
2023/08/08 00:06:05;;;;;;;8.27;2.88;;;;;;;;;;4894980;29;20151;-73
2023/08/08 00:08:31;;;;;;;8.95;4.00;;;;;;;;;;4895268;29;20040;-74
2023/08/08 00:10:57;;;;;;;11.13;3.05;;;;;;;;;;4895038;29;20054;-74
2023/08/08 00:13:23;;;;;;;12.55;2.97;;;15.30;99.90;;;;;;4895254;29;20196;-74
2023/08/08 00:15:49;;;;;;;11.32;2.95;;;;;;;;;;4895200;29;20558;-74
2023/08/08 00:18:15;;;;;;;11.82;3.05;;;;;;;;;;4880775;29;20040;-74
2023/08/08 00:20:41;;;;;;;7.03;2.70;;;;;;;;;;4898382;29;20049;-74
2023/08/08 00:23:07;;;;;;;15.98;3.90;;;;;;;;;;4898841;29;20116;-74
2023/08/08 00:25:33;;;;;;;7.25;2.75;;;;;;;;;;4898238;29;20044;-74
2023/08/08 00:27:59;;;;;;;8.52;2.72;;;;;;;;;;4896310;29;20128;-74
2023/08/08 00:30:25;;;;;;;15.50;3.67;;;;;;;;;;4896970;29;20498;-74
2023/08/08 00:32:52;;;;;;;8.15;2.78;;;;;;;;;;4898175;29;20048;-73
2023/08/08 00:35:18;;;;;;;21.85;3.28;;;;;;;;;;4898095;29;20080;-73
2023/08/08 00:37:44;;;;;;;11.18;2.88;;;;;;;;;;4898232;29;20123;-74
2023/08/08 00:40:10;;;;;;;10.75;3.17;;;;;;;;;;4899344;29;20044;-74
2023/08/08 00:42:36;;;;;;;14.00;3.30;;;;;;;;;;4898504;29;20376;-74
2023/08/08 00:45:03;;;;;;;9.63;2.60;;;;;;;;;;4897698;29;20137;-74
2023/08/08 00:47:33;;;;;;;9.48;3.30;;;15.80;99.90;;;;;;4895992;29;20488;-74
2023/08/08 00:50:00;;;;;;;17.95;3.40;;;15.50;99.90;;;;;;4899318;29;20037;-73
2023/08/08 00:52:27;;;;;;;8.98;3.13;;;;;;;;;;4883343;29;20048;-74
2023/08/08 00:54:53;;;;;;;11.77;3.30;;;;;;;;;;4895512;29;20463;-73
2023/08/08 00:57:19;;;;;;;12.07;3.08;;;;;;;;;;4882525;29;20227;-74
2023/08/08 00:59:45;;;;;;;11.00;3.33;;;;;;;;;;4897143;29;20460;-73
2023/08/08 01:02:12;;;;;;;8.63;3.30;;;;;;;;;;4882180;29;20057;-73
2023/08/08 01:04:38;;;;;;;10.52;2.90;;;;;;;;;;4897881;29;20475;-73
2023/08/08 01:07:36;;;;;;;12.90;3.13;;;15.50;99.90;;;;;;4897603;29;20056;-73
2023/08/08 01:10:38;;;;;;;8.60;3.40;;;15.50;99.90;;;;;;4897882;29;20049;-74
2023/08/08 01:13:11;;;;;;;16.20;3.38;;;15.50;99.90;;;;;;4875523;29;20044;-74
2023/08/08 01:15:38;;;;;;;11.32;3.30;;;15.60;99.90;;;;;;4897562;29;20119;-74
2023/08/08 01:18:08;;;;;;;12.90;2.97;;;;;;;;;;4881768;29;20040;-74
2023/08/08 01:20:35;;;;;;;7.40;2.90;;;15.50;99.90;;;;;;4882010;29;20555;-73
2023/08/08 01:23:17;;;;;;;9.15;3.38;;;;;;;;;;4897482;29;20046;-73
2023/08/08 01:25:43;;;;;;;8.53;2.73;;;15.50;99.90;;;;;;4881640;29;20045;-73
2023/08/08 01:28:10;;;;;;;9.65;2.90;;;;;;;;;;4896489;29;20383;-74
2023/08/08 01:30:36;;;;;;;15.65;3.58;;;;;;;;;;4894840;29;20037;-74
2023/08/08 01:33:02;;;;;;;14.57;2.90;;;;;;;;;;4881504;29;20065;-74
2023/08/08 01:35:32;;;;;;;10.70;2.97;;;15.20;99.90;;;;;;4895668;29;20084;-74
2023/08/08 01:38:20;;;;;;;8.73;2.72;;;15.50;99.90;;;;;;4897147;29;20044;-73
2023/08/08 01:40:46;;;;;;;14.45;3.80;;;;;;;;;;4895664;29;20105;-73
2023/08/08 01:43:14;;;;;;;10.80;2.78;;;;;;;;;;4895947;29;20073;-74
2023/08/08 01:45:40;;;;;;;12.10;2.60;;;;;;;;;;4881195;29;20048;-74
2023/08/08 01:48:10;;;;;;;16.33;3.28;;;15.30;99.90;;;;;;4892363;29;20079;-74
2023/08/08 01:50:37;;;;;;;6.43;3.10;;;;;;;;;;4895742;29;20132;-74
2023/08/08 01:53:03;;;;;;;10.23;2.85;;;;;;;;;;4896928;29;20091;-73
2023/08/08 01:55:29;;;;;;;14.50;3.28;;;;;;;;;;4897029;29;20088;-74
2023/08/08 01:57:55;;;;;;;12.77;3.17;;;;;;;;;;4894699;29;20059;-74
2023/08/08 02:00:21;;;;;;;11.63;2.90;;;;;;;;;;4895660;29;20378;-74
2023/08/08 02:02:48;;;;;;;7.57;3.00;;;;;;;;;;4896164;29;20045;-74
2023/08/08 02:05:14;;;;;;;10.52;3.03;;;;;;;;;;4880931;29;20490;-74
2023/08/08 02:07:40;;;;;;;10.27;2.97;;;;;;;;;;4880948;29;20479;-73
2023/08/08 02:10:06;;;;;;;9.68;2.88;;;;;;;;;;4897984;29;20091;-74
2023/08/08 02:12:33;;;;;;;9.15;3.10;;;;;;;;;;4895434;29;20483;-74
2023/08/08 02:14:59;;;;;;;12.98;3.15;;;;;;;;;;4896030;29;20044;-74
2023/08/08 02:17:26;;;;;;;8.18;2.60;;;15.50;99.90;;;;;;4895205;29;20053;-73
2023/08/08 02:19:52;;;;;;;12.73;3.20;;;;;;;;;;4897601;29;20172;-73
2023/08/08 02:22:18;;;;;;;8.27;2.92;;;;;;;;;;4896698;29;20116;-72
2023/08/08 02:24:44;;;;;;;10.88;3.35;;;;;;;;;;4897848;29;20040;-72
2023/08/08 02:27:12;;;;;;;13.13;3.03;;;15.10;99.90;;;;;;4895854;29;20045;-72
2023/08/08 02:29:38;;;;;;;16.27;3.85;;;;;;;;;;4896054;29;20040;-72
2023/08/08 02:32:04;;;;;;;16.13;3.00;;;14.10;99.90;;;;;;4880669;29;20037;-72
2023/08/08 02:34:30;;;;;;;8.70;2.97;;;;;;;;;;4880587;29;20052;-72
2023/08/08 02:36:56;;;;;;;11.52;3.20;;;;;;;;;;4880498;29;20040;-71
2023/08/08 02:39:22;;;;;;;12.30;2.80;;;;;;;;;;4896092;29;20061;-72
2023/08/08 02:41:48;;;;;;;10.90;2.60;;;;;;;;;;4894014;29;20045;-72
2023/08/08 02:44:14;;;;;;;12.95;3.13;;;;;;;;;;4895265;29;20463;-72
2023/08/08 02:46:40;;;;;;;7.57;2.75;;;;;;;;;;4895285;29;20086;-72
2023/08/08 02:49:06;;;;;;;6.80;2.75;;;;;;;;;;4896211;29;20356;-71
2023/08/08 02:51:32;;;;;;;8.73;2.88;;;;;;;;;;4895736;29;20051;-72
2023/08/08 02:53:58;;;;;;;9.98;3.15;;;;;;;;;;4895748;29;20044;-72
2023/08/08 02:56:25;;;;;;;12.77;2.83;;;;;;;;;;4880501;29;20427;-72
2023/08/08 02:58:51;;;;;;;8.25;3.00;;;;;;;;;;4895982;29;20040;-72
2023/08/08 03:01:18;;;;;;;8.85;2.95;;;;;;;;;;4895976;29;20044;-72
2023/08/08 03:03:44;;;;;;;8.13;2.65;;;;;;;;;;4896195;29;20067;-72
2023/08/08 03:06:10;;;;;;;11.02;2.90;;;;;;;;;;4895319;29;20036;-72
2023/08/08 03:08:36;;;;;;;10.77;2.90;;;;;;;;;;4895597;29;20064;-75
2023/08/08 03:11:02;;;;;;;10.73;2.45;;;;;;;;;;4880402;29;20440;-74
2023/08/08 03:13:28;;;;;;;11.63;3.08;;;;;;;;;;4896655;29;20092;-72
2023/08/08 03:15:56;;;;;;;7.65;2.75;;;;;;;;;;4895463;29;20043;-72
2023/08/08 03:18:22;;;;;;;8.88;2.70;;;;;;;;;;4895405;29;20165;-72
2023/08/08 03:20:49;;;;;;;23.73;3.40;;;;;;;;;;4896888;29;20394;-72
2023/08/08 03:23:15;;;;;;;14.57;3.70;;;;;;;;;;4896944;29;20092;-70
2023/08/08 03:25:41;;;;;;;11.40;3.15;;;;;;;;;;4894219;29;20047;-70
2023/08/08 03:28:07;;;;;;;13.15;3.42;;;;;;;;;;4895094;29;20176;-71
2023/08/08 03:30:33;;;;;;;12.70;3.40;;;;;;;;;;4893571;29;20041;-71
2023/08/08 03:32:59;;;;;;;12.20;3.22;;;;;;;;;;4879409;29;20108;-70
2023/08/08 03:35:25;;;;;;;10.90;2.58;;;;;;;;;;4893553;29;20052;-71
2023/08/08 03:37:51;;;;;;;16.40;3.75;;;;;;;;;;4892792;29;20056;-71
2023/08/08 03:40:17;;;;;;;8.27;2.97;;;;;;;;;;4879830;29;20056;-71
2023/08/08 03:42:43;;;;;;;19.75;3.85;;;;;;;;;;4895461;29;20040;-71
2023/08/08 03:45:10;;;;;;;10.00;2.85;;;15.20;99.90;;;;;;4879844;29;20471;-71
2023/08/08 03:47:36;;;;;;;8.50;2.75;;;;;;;;;;4894567;29;20056;-71
2023/08/08 03:50:02;;;;;;;11.57;2.35;;;;;;;;;;4895174;29;20522;-72
2023/08/08 03:52:28;;;;;;;11.32;4.07;;;;;;;;;;4895716;29;20127;-71
2023/08/08 03:54:55;;;;;;;11.70;2.88;;;;;;;;;;4899013;29;20040;-71
2023/08/08 03:57:21;;;;;;;11.73;2.75;;;;;;;;;;4900157;29;20041;-71
2023/08/08 03:59:47;;;;;;;13.65;2.65;;;;;;;;;;4899094;29;20394;-71
2023/08/08 04:02:13;;;;;;;8.98;2.70;;;;;;;;;;4900333;29;20091;-71
2023/08/08 04:04:39;;;;;;;9.95;2.85;;;;;;;;;;4898918;29;20080;-72
2023/08/08 04:07:05;;;;;;;10.50;2.10;;;;;;;;;;4898804;29;20037;-72
2023/08/08 04:09:31;;;;;;;16.27;2.85;;;;;;;;;;4867855;29;20032;-71
2023/08/08 04:11:57;;;;;;;10.15;3.20;;;;;;;;;;4899006;29;20123;-70
2023/08/08 04:14:23;;;;;;;13.20;2.90;;;;;;;;;;4896751;29;20036;-71
2023/08/08 04:16:49;;;;;;;9.63;2.30;;;;;;;;;;4897314;29;20044;-71
2023/08/08 04:19:15;;;;;;;8.63;2.55;;;;;;;;;;4897890;29;20049;-71
2023/08/08 04:21:42;;;;;;;15.63;2.53;;;;;;;;;;4898063;29;20475;-71
2023/08/08 04:24:08;;;;;;;11.05;2.80;;;;;;;;;;4898671;29;20036;-71
2023/08/08 04:26:34;;;;;;;13.75;2.88;;;;;;;;;;4896803;29;20045;-73
2023/08/08 04:29:00;;;;;;;10.40;2.53;;;;;;;;;;4894303;29;20033;-72
2023/08/08 04:31:26;;;;;;;7.57;3.13;;;;;;;;;;4898987;29;20048;-72
2023/08/08 04:33:58;;;;;;;12.20;2.70;;;13.30;99.90;;;;;;4882639;29;20364;-72
2023/08/08 04:36:24;;;;;;;13.98;2.67;;;;;;;;;;4896834;29;20159;-73
2023/08/08 04:38:50;;;;;;;13.98;2.53;;;;;;;;;;4882823;29;20069;-72
2023/08/08 04:41:16;;;;;;;12.43;2.60;;;;;;;;;;4896356;29;20435;-73
2023/08/08 04:43:42;;;;;;;12.20;2.90;;;;;;;;;;4896035;29;20060;-72
2023/08/08 04:46:09;;;;;;;11.95;2.63;;;;;;;;;;4897952;29;20047;-72
2023/08/08 04:48:37;;;;;;;10.38;2.55;;;;;;;;;;4898499;29;20084;-72
2023/08/08 04:51:05;;;;;;;20.55;2.75;;;;;;;;;;4898228;29;20501;-72
2023/08/08 04:53:31;;;;;;;12.90;2.60;;;;;;;;;;4899258;29;20040;-72
2023/08/08 04:55:57;;;;;;;25.48;3.05;;;;;;;;;;4882771;29;20379;-71
2023/08/08 04:58:23;;;;;;;14.65;2.75;;;;;;;;;;4898057;29;20052;-72
2023/08/08 05:00:50;;;;;;;13.38;2.67;;;;;;;;;;4895280;29;20041;-72
2023/08/08 05:03:17;;;;;;;11.80;2.40;;;;;;;;;;4897451;29;20403;-72
2023/08/08 05:05:45;;;;;;;18.33;3.17;;;;;;;;;;4897379;29;20501;-72
2023/08/08 05:08:13;;;;;;;16.48;3.55;;;14.30;99.90;;;;;;4897632;29;20047;-72
2023/08/08 05:10:39;;;;;;;16.70;3.10;;;;;;;;;;4895818;29;20068;-72
2023/08/08 05:13:05;;;;;;;12.73;2.83;;;;;;;;;;4897688;29;20491;-72
2023/08/08 05:15:31;;;;;;;13.60;2.83;;;;;;;;;;4898773;29;20040;-73
2023/08/08 05:17:59;;;;;;;11.45;3.10;;;;;;;;;;4897494;29;20045;-72
2023/08/08 05:20:25;;;;;;;12.35;2.78;;;;;;;;;;4895346;29;20052;-72
2023/08/08 05:22:51;;;;;;;9.85;2.80;;;;;;;;;;4896039;29;20045;-71
2023/08/08 05:25:17;;;;;;;9.73;2.50;;;;;;;;;;4896599;29;20080;-72
2023/08/08 05:27:44;;;;;;;13.32;2.58;;;;;;;;;;4888820;29;20052;-72
2023/08/08 05:30:10;;;;;;;15.30;2.75;;;;;;;;;;4895004;29;20036;-72
2023/08/08 05:32:36;;;;;;;9.32;2.50;;;;;;;;;;4897630;29;20447;-72
2023/08/08 05:35:04;;;;;;;12.73;2.60;;;;;;;;;;4897283;29;20039;-72
2023/08/08 05:37:30;;;;;;;13.60;2.10;;;;;;;;;;4897082;29;20092;-72
2023/08/08 05:39:56;;;;;;;7.88;2.53;;;;;;;;;;4896718;29;20056;-71
2023/08/08 05:42:22;;;;;;;7.63;2.25;;;;;;;;;;4881723;29;20056;-71
2023/08/08 05:44:48;;;;;;;9.07;2.67;;;;;;;;;;4896078;29;20037;-71
2023/08/08 05:47:15;;;;;;;7.63;2.63;;;;;;;;;;4896984;29;20423;-72
2023/08/08 05:49:42;;;;;;;12.77;2.60;;;;;;;;;;4897064;29;20075;-72
2023/08/08 05:52:08;;;;;;;15.10;2.83;;;;;;;;;;4896176;29;20041;-72
2023/08/08 05:54:35;;;;;;;13.30;2.83;;;;;;;;;;4897069;29;20052;-72
2023/08/08 05:57:02;;;;;;;10.15;2.00;;;;;;;;;;4881448;29;20037;-72
2023/08/08 05:59:28;;;;;;;15.60;3.05;;;;;;;;;;4896868;29;20108;-72
2023/08/08 06:01:54;;;;;;;12.63;2.42;;;;;;;;;;4897943;29;20041;-72
2023/08/08 06:04:20;;;;;;;13.85;2.78;;;;;;;;;;4897877;29;20044;-72
2023/08/08 06:06:48;;;;;;;12.45;2.35;;;;;;;;;;4895962;29;20053;-73
2023/08/08 06:09:15;;;;;;;17.52;2.95;;;;;;;;;;4894580;29;20044;-72
2023/08/08 06:11:41;;;;;;;12.85;2.72;;;;;;;;;;4896814;29;20049;-72
2023/08/08 06:14:07;;;;;;;12.15;2.38;;;;;;;;;;4895301;29;20052;-72
2023/08/08 06:16:33;;;;;;;19.70;2.88;;;;;;;;;;4895156;29;20135;-72
2023/08/08 06:18:59;;;;;;;19.45;2.92;;;;;;;;;;4896184;29;20127;-72
2023/08/08 06:21:25;;;;;;;17.58;3.22;;;;;;;;;;4880959;29;20052;-72
2023/08/08 06:23:54;;;;;;;13.60;2.30;;;;;;;;;;4897534;29;20100;-72
2023/08/08 06:26:21;;;;;;;12.25;2.20;;;;;;;;;;4895944;29;20041;-73
2023/08/08 06:28:47;;;;;;;16.70;3.15;;;;;;;;;;4891726;29;20111;-72
2023/08/08 06:31:13;;;;;;;15.00;2.35;;;;;;;;;;4894597;29;20438;-72
2023/08/08 06:33:39;;;;;;;8.82;2.10;;;;;;;;;;4897442;29;20051;-74
2023/08/08 06:36:06;;;;;;;20.98;2.38;;;15.20;99.90;;;;;;4895920;29;21536;-72
2023/08/08 06:38:33;;;;;;;10.30;2.28;;;;;;;;;;4896065;29;20106;-73
2023/08/08 06:41:00;;;;;;;11.18;2.38;;;;;;;;;;4896168;29;20128;-72
2023/08/08 06:43:26;;;;;;;15.55;2.17;;;;;;;;;;4896461;29;20119;-72
2023/08/08 06:45:52;;;;;;;17.15;2.63;;;;;;;;;;4895921;29;20057;-72
2023/08/08 06:48:18;;;;;;;13.52;2.35;;;;;;;;;;4896079;29;20092;-72
2023/08/08 06:50:45;;;;;;;11.48;3.05;;;;;;;;;;4895955;29;20062;-73
2023/08/08 06:53:11;;;;;;;16.38;2.42;;;;;;;;;;4894844;29;20048;-73
2023/08/08 06:55:37;;;;;;;20.02;2.60;;;;;;;;;;4895712;29;20527;-73
2023/08/08 06:58:03;;;;;;;18.50;2.92;;;;;;;;;;4895495;29;20045;-72
2023/08/08 07:00:29;;;;;;;15.82;2.70;;;;;;;;;;4893724;29;20075;-72
2023/08/08 07:02:56;;;;;;;17.38;2.63;;;;;;;;;;4894754;29;20120;-72
2023/08/08 07:05:22;;;;;;;18.10;2.75;;;;;;;;;;4895186;29;20041;-72
2023/08/08 07:07:49;;;;;;;18.40;2.78;;;;;;;;;;4880086;29;20045;-72
2023/08/08 07:10:16;;;;;;;17.70;3.08;;;;;;;;;;4893615;29;20571;-73
2023/08/08 07:12:42;;;;;;;14.50;2.45;;;;;;;;;;4896961;29;20131;-72
2023/08/08 07:15:08;;;;;;;10.90;2.17;;;15.90;99.90;;;;;;4895418;29;20479;-72
2023/08/08 07:17:34;;;;;;;18.00;3.05;;;;;;;;;;4895527;29;20052;-72
2023/08/08 07:20:00;;;;;;;19.17;2.70;;;;;;;;;;4879947;29;20048;-73
2023/08/08 07:22:26;;;;;;;13.52;3.13;;;;;;;;;;4893988;29;20045;-73
2023/08/08 07:24:52;;;;;;;13.20;2.45;;;;;;;;;;4894239;29;20051;-73
2023/08/08 07:27:18;;;;;;;14.48;2.70;;;;;;;;;;4895063;29;20053;-72
2023/08/08 07:29:45;;;;;;;16.80;2.80;;;;;;;;;;4892769;29;20046;-72
2023/08/08 07:32:11;;;;;;;20.35;2.55;;;;;;;;;;4893757;29;20499;-73
2023/08/08 07:34:37;;;;;;;10.68;2.00;;;;;;;;;;4894145;29;20045;-72
2023/08/08 07:37:03;;;;;;;17.98;3.55;;;;;;;;;;4895313;29;20051;-72
2023/08/08 07:39:29;;;;;;;10.20;1.88;;;;;;;;;;4895328;29;20056;-72
2023/08/08 07:41:57;;;;;;;17.48;2.42;;;;;;;;;;4879723;29;20478;-72
2023/08/08 07:44:23;;;;;;;21.00;2.60;;;;;;;;;;4896594;29;20483;-73
2023/08/08 07:46:49;;;;;;;23.67;3.05;;;;;;;;;;4895374;29;20514;-72
2023/08/08 07:49:16;;;;;;;16.02;2.67;;;;;;;;;;4895321;29;20124;-72
2023/08/08 07:51:42;;;;;;;16.95;3.03;;;;;;;;;;4893181;29;20045;-73
2023/08/08 07:54:10;;;;;;;14.23;2.38;;;;;;;;;;4895795;29;20124;-72
2023/08/08 07:56:36;;;;;;;14.02;2.60;;;;;;;;;;4891920;29;20798;-73
2023/08/08 07:59:03;;;;;;;16.50;2.10;;;16.50;99.90;;;;;;4892523;29;20487;-72
2023/08/08 08:01:29;;;;;;;15.82;3.08;;;;;;;;;;4892410;29;20048;-72
2023/08/08 08:03:56;;;;;;;11.30;2.70;;;;;;;;;;4894991;29;20044;-74
2023/08/08 08:06:22;;;;;;;23.10;3.67;;;;;;;;;;4896446;29;20411;-74
2023/08/08 08:08:48;;;;;;;9.60;2.10;;;;;;;;;;4893481;29;20037;-73
2023/08/08 08:11:16;;;;;;;15.60;2.33;;;;;;;;;;4892186;29;20173;-73
2023/08/08 08:13:42;;;;;;;20.65;2.53;;;;;;;;;;4888601;29;20037;-73
2023/08/08 08:16:08;;;;;;;16.80;2.28;;;;;;;;;;4895049;29;20497;-73
2023/08/08 08:18:35;;;;;;;15.18;2.28;;;;;;;;;;4879948;29;20045;-72
2023/08/08 08:21:01;;;;;;;10.63;1.95;;;;;;;;;;4892374;29;20049;-72
2023/08/08 08:23:27;;;;;;;12.55;2.58;;;;;;;;;;4894678;29;20057;-72
2023/08/08 08:25:53;;;;;;;12.05;2.40;;;;;;;;;;4895754;29;20127;-72
2023/08/08 08:28:19;;;;;;;11.10;2.30;;;;;;;;;;4891556;29;20463;-72
2023/08/08 08:30:45;;;;;;;12.90;2.33;;;;;;;;;;4884646;29;20045;-73
2023/08/08 08:33:12;;;;;;;10.70;2.10;;;;;;;;;;4883898;29;20060;-73
2023/08/08 08:35:38;;;;;;;13.88;2.60;;;;;;;;;;4883747;29;20076;-73
2023/08/08 08:38:04;;;;;;;13.27;2.20;;;;;;;;;;4880081;29;20045;-73
2023/08/08 08:40:37;;;;;;;13.15;2.17;;;16.90;99.90;;;;;;4892308;29;20100;-72
2023/08/08 08:43:04;;;;;;;10.05;2.35;;;16.80;99.90;;;;;;4906464;29;20052;-72
2023/08/08 08:45:30;;;;;;;9.07;2.85;;;;;;;;;;4886256;29;20048;-72
2023/08/08 08:47:57;;;;;;;11.90;2.60;;;;;;;;;;4891368;29;20053;-72
2023/08/08 08:50:26;;;;;;;10.13;2.13;;;16.80;99.90;;;;;;4889975;29;20064;-72
2023/08/08 08:52:55;;;;;;;15.82;2.10;;;16.80;99.90;;;;;;4892083;29;20048;-72
2023/08/08 08:55:22;;;;;;;7.78;2.13;;;;;;;;;;4890343;29;20063;-72
2023/08/08 08:57:50;;;;;;;16.67;2.55;;;17.20;99.90;;;;;;4884469;29;20041;-73
2023/08/08 09:00:16;;;;;;;15.88;2.42;;;;;;;;;;4888672;29;20435;-73
2023/08/08 09:02:42;;;;;;;14.93;2.33;;;;;;;;;;4893481;29;20072;-71
2023/08/08 09:05:08;;;;;;;10.20;2.03;;;;;;;;;;4874488;29;20084;-70
2023/08/08 09:07:36;;;;;;;8.98;2.20;;;;;;;;;;4885672;29;20048;-71
2023/08/08 09:10:03;;;;;;;10.77;2.10;;;17.30;99.90;;;;;;4913638;29;20048;-71
2023/08/08 09:12:31;;;;;;;12.15;2.10;;;17.30;99.90;;;;;;4888240;29;20045;-73
2023/08/08 09:14:57;;;;;;;14.20;2.35;;;;;;;;;;4891008;29;20048;-74
2023/08/08 09:17:26;;;;;;;11.50;2.05;;;17.20;99.90;;;;;;4874869;29;20072;-74
2023/08/08 09:19:55;;;;;;;10.20;2.38;;;17.30;99.90;;;;;;4893511;29;20127;-74
2023/08/08 09:22:23;;;;;;;18.45;2.20;;;;;;;;;;4894509;29;20390;-73
2023/08/08 09:24:49;;;;;;;6.25;1.95;;;;;;;;;;4891625;29;20581;-74
2023/08/08 09:27:15;;;;;;;12.73;2.10;;;;;;;;;;4897344;29;20040;-72
2023/08/08 09:29:42;;;;;;;10.48;2.08;;;17.10;99.90;;;;;;4883025;29;20516;-74
2023/08/08 09:32:08;;;;;;;11.98;2.50;;;;;;;;;;4879374;29;20049;-74
2023/08/08 09:34:34;;;;;;;16.02;2.80;;;;;;;;;;4896879;29;20048;-74
2023/08/08 09:37:01;;;;;;;9.38;2.30;;;;;;;;;;4874621;29;20051;-74
2023/08/08 09:39:28;;;;;;;11.90;2.30;;;17.10;99.90;;;;;;4864319;29;20139;-74
2023/08/08 09:41:56;;;;;;;16.33;2.38;;;17.10;99.90;;;;;;4886994;29;20057;-74
2023/08/08 09:44:29;;;;;;;16.77;2.85;;;;;;;;;;4891461;29;20049;-74
2023/08/08 09:46:55;;;;;;;18.40;2.97;;;;;;;;;;4887046;29;20078;-74
2023/08/08 09:49:22;;;;;;;12.82;2.35;;;17.40;99.90;;;;;;4889923;29;20399;-74
2023/08/08 09:51:49;;;;;;;16.38;2.78;;;;;;;;;;4894233;29;20044;-70
2023/08/08 09:54:15;;;;;;;9.98;2.85;;;;;;;;;;4896068;29;20068;-71
2023/08/08 09:56:42;;;;;;;17.42;2.90;;;17.40;99.90;;;;;;4902967;29;20455;-71
2023/08/08 09:59:09;;;;;;;14.43;2.63;;;17.60;99.90;;;;;;4894334;29;20036;-71
2023/08/08 10:01:38;;;;;;;16.10;3.35;;;17.80;99.90;;;;;;4892627;29;20053;-71
2023/08/08 10:04:06;;;;;;;12.88;2.35;;;17.70;99.90;;;;;;4891303;29;20411;-71
2023/08/08 10:06:33;;;;;;;9.38;2.17;;;;;;;;;;4882187;29;20052;-71
2023/08/08 10:08:59;;;;;;;18.40;3.20;;;17.90;99.90;;;;;;4885191;29;20063;-70
2023/08/08 10:11:26;;;;;;;20.70;3.97;;;;;;;;;;4892798;29;20037;-70
2023/08/08 10:13:54;;;;;;;12.15;2.97;;;17.70;99.90;;;;;;4893686;29;20037;-69
2023/08/08 10:16:20;;;;;;;11.60;2.60;;;;;;;;;;4889393;29;20076;-74
2023/08/08 10:18:56;;;;;;;13.75;2.15;;;;;;;;;;4888731;29;20069;-74
2023/08/08 10:21:23;;;;;;;14.43;3.28;;;;;;;;;;4891115;29;20092;-74
2023/08/08 10:23:49;;;;;;;10.15;2.15;;;;;;;;;;4896476;29;20087;-74
2023/08/08 10:26:20;;;;;;;12.50;2.20;;;;;;;;;;4891263;29;20152;-73
2023/08/08 10:29:00;;;;;;;12.05;2.00;;;18.00;97.90;;;;;;4895407;29;20104;-73
2023/08/08 10:31:26;;;;;;;14.77;2.30;;;;;;;;;;4886360;29;20116;-74
2023/08/08 10:34:05;;;;;;;12.77;2.58;;;18.00;98.80;;;;;;4872950;29;20033;-74
2023/08/08 10:37:03;;;;;;;9.38;2.13;;;;;;;;;;4882758;29;20060;-73
2023/08/08 10:39:30;;;;;;;13.13;2.10;;;;;;;;;;4898430;29;20410;-74
2023/08/08 10:42:02;;;;;;;12.63;2.30;;;18.20;97.80;;;;;;4867390;29;20104;-73
2023/08/08 10:44:28;;;;;;;15.90;2.47;;;;;;;;;;4868914;29;20135;-73
2023/08/08 10:46:55;;;;;;;9.25;2.30;;;;;;;;;;4876930;29;20462;-74
2023/08/08 10:49:21;;;;;;;8.63;2.03;;;;;;;;;;4882863;29;20033;-73
2023/08/08 10:51:48;;;;;;;14.00;2.67;;;17.80;97.40;;;;;;4880584;29;20052;-74
2023/08/08 10:54:27;;;;;;;9.57;1.92;;;18.80;99.90;;;;;;4874234;29;20041;-73
2023/08/08 10:56:55;;;;;;;8.40;1.90;;;18.30;97.50;;;;;;4871276;29;20132;-73
2023/08/08 10:59:36;;;;;;;11.88;2.25;;;18.40;97.00;;;;;;4867496;29;20049;-74
2023/08/08 11:02:02;;;;;;;15.25;2.05;;;19.10;99.90;;;;;;4891651;29;20049;-73
2023/08/08 11:04:30;;;;;;;12.40;2.20;;;;;;;;;;4870684;29;20047;-74
2023/08/08 11:06:56;;;;;;;14.93;2.35;;;;;;;;;;4870664;29;20421;-74
2023/08/08 11:09:23;;;;;;;7.53;1.90;;;18.90;95.70;;;;;;4882102;29;20044;-70
2023/08/08 11:11:49;;;;;;;8.63;2.00;;;18.50;99.90;;;;;;4890573;29;20060;-69
2023/08/08 11:14:16;;;;;;;12.98;2.13;;;;;;;;;;4866160;29;20037;-70
2023/08/08 11:16:43;;;;;;;11.10;2.35;;;18.40;95.30;;;;;;4893496;29;20100;-69
2023/08/08 11:19:10;;;;;;;11.27;2.72;;;;;;;;;;4880377;29;20116;-69
2023/08/08 11:21:40;;;;;;;12.27;2.22;;;18.90;96.00;;;;;;4876057;29;20079;-69
2023/08/08 11:24:06;;;;;;;12.48;1.88;;;19.40;99.10;;;;;;4896314;29;20045;-70
2023/08/08 11:26:33;;;;;;;12.20;1.65;;;;;;;;;;4896177;29;20051;-70
2023/08/08 11:29:04;;;;;;;9.43;1.83;;;18.60;95.30;;;;;;4896475;29;20426;-70
2023/08/08 11:31:30;;;;;;;10.80;2.35;;;;;;;;;;4893247;29;20041;-75
2023/08/08 11:33:56;;;;;;;10.13;2.38;;;18.60;96.10;;;;;;4878290;29;20057;-75
2023/08/08 11:36:23;;;;;;;16.92;2.55;;;18.30;96.00;;;;;;4877363;29;20059;-75
2023/08/08 11:38:50;;;;;;;10.40;1.92;;;;;;;;;;4877282;29;20063;-74
2023/08/08 11:41:17;;;;;;;17.90;2.58;;;;;;;;;;4880934;29;20068;-76
2023/08/08 11:43:44;;;;;;;10.25;2.13;;;17.40;99.90;;;;;;4876788;29;20402;-75
2023/08/08 11:46:12;;;;;;;16.25;2.67;;;17.80;97.60;;;;;;4876809;29;20049;-75
2023/08/08 11:48:38;;;;;;;11.52;2.30;;;;;;;;;;4876780;29;20476;-74
2023/08/08 11:51:05;;;;;;;15.52;2.67;;;;;;;;;;4876538;29;20045;-74
2023/08/08 11:53:31;;;;;;;13.18;2.03;;;;;;;;;;4877676;29;20041;-74
2023/08/08 11:55:58;;;;;;;10.82;2.35;;;;;;;;;;4877694;29;20047;-75
2023/08/08 11:58:25;;;;;;;7.50;1.70;;;17.40;99.90;;;;;;4878070;29;20060;-75
2023/08/08 12:00:51;;;;;;;12.85;2.58;;;;;;;;;;4878247;29;20049;-75
2023/08/08 12:03:18;;;;;;;16.00;2.38;;;;;;;;;;4878010;29;20045;-75
2023/08/08 12:05:48;;;;;;;11.85;2.13;;;19.00;96.70;;;;;;4877794;29;20084;-76
2023/08/08 12:08:21;;;;;;;14.70;1.95;;;18.50;98.30;;;;;;4877546;29;20403;-75
2023/08/08 12:10:56;;;;;;;7.13;1.58;;;;;;;;;;4879133;29;20056;-75
2023/08/08 12:13:23;;;;;;;11.13;2.05;;;19.30;95.60;;;;;;4863164;29;20088;-76
2023/08/08 12:15:49;;;;;;;12.45;2.45;;;;;;;;;;4896499;29;20112;-75
2023/08/08 12:18:19;;;;;;;9.40;2.13;;;18.90;94.60;;;;;;4881142;29;20049;-75
2023/08/08 12:20:45;;;;;;;11.05;1.90;;;;;;;;;;4880996;29;20064;-71
2023/08/08 12:23:12;;;;;;;22.75;2.95;;;18.80;96.40;;;;;;4886955;29;20097;-70
2023/08/08 12:25:38;;;;;;;14.88;2.67;;;;;;;;;;4880919;29;20045;-70
2023/08/08 12:28:05;;;;;;;15.88;2.35;;;;;;;;;;4880899;29;20041;-71
2023/08/08 12:30:31;;;;;;;11.77;2.00;;;19.20;96.50;;;;;;4880775;29;20128;-71
2023/08/08 12:32:57;;;;;;;9.35;2.00;;;20.10;97.50;;;;;;4865474;29;20446;-71
2023/08/08 12:35:26;;;;;;;12.02;2.80;;;20.10;97.70;;;;;;4880897;29;20133;-70
2023/08/08 12:37:52;;;;;;;11.35;2.15;;;;;;;;;;4881171;29;20061;-70
2023/08/08 12:40:18;;;;;;;9.02;1.90;;;;;;;;;;4880559;29;20061;-70
2023/08/08 12:42:44;;;;;;;14.13;2.00;;;;;;;;;;4865456;29;20387;-72
2023/08/08 12:45:10;;;;;;;10.40;2.28;;;19.60;98.30;;;;;;4880589;29;20052;-71
2023/08/08 12:47:37;;;;;;;11.93;1.98;;;;;;;;;;4887552;29;20135;-71
2023/08/08 12:50:07;;;;;;;12.98;2.05;;;18.90;93.50;;;;;;4880506;29;20049;-71
2023/08/08 12:52:34;;;;;;;13.90;2.30;;;;;;;;;;4880382;29;20048;-71
2023/08/08 12:55:00;;;;;;;8.02;1.90;;;;;;;;;;4880440;29;20045;-71
2023/08/08 12:57:26;;;;;;;8.90;2.05;;;;;;;;;;4880452;29;20049;-71
2023/08/08 12:59:52;;;;;;;11.82;2.08;;;18.00;97.10;;;;;;4880275;29;20045;-70
2023/08/08 13:02:18;;;;;;;13.10;2.08;;;19.60;99.70;;;;;;4880295;29;20517;-71
2023/08/08 13:04:43;;;;;;;19.55;2.10;;;19.50;97.70;;;;;;4880082;29;20049;-70
2023/08/08 13:07:09;;;;;;;14.15;2.40;;;20.00;95.60;;;;;;4880235;29;20045;-71
2023/08/08 13:09:35;;;;;;;19.17;2.42;;;;;;;;;;4880107;29;20107;-71
2023/08/08 13:12:02;;;;;;;13.57;2.03;;;;;;;;;;4880105;29;20045;-71
2023/08/08 13:14:27;;;;;;;13.52;2.33;;;18.10;99.30;;;;;;4880238;29;20096;-71
2023/08/08 13:16:53;;;;;;;10.13;2.28;;;18.50;99.80;;;;;;4854546;29;20403;-70
2023/08/08 13:19:21;;;;;;;8.85;1.98;;;18.70;95.30;;;;;;4883339;29;20447;-71
2023/08/08 13:21:47;;;;;;;8.93;2.03;;;;;;;;;;4898635;29;20514;-71
2023/08/08 13:24:13;;;;;;;9.52;2.10;;;19.00;99.50;;;;;;4898227;29;20044;-71
2023/08/08 13:26:40;;;;;;;12.43;2.08;;;;;;;;;;4898736;29;20052;-71
2023/08/08 13:29:06;;;;;;;12.63;2.30;;;;;;;;;;4898709;29;20051;-76
2023/08/08 13:31:32;;;;;;;11.60;2.20;;;;;;;;;;4898740;29;20036;-76
2023/08/08 13:33:59;;;;;;;7.60;2.03;;;;;;;;;;4898639;29;20442;-76
2023/08/08 13:36:25;;;;;;;11.55;1.63;;;;;;;;;;4895286;29;20099;-77
2023/08/08 13:38:51;;;;;;;7.35;1.60;;;;;;;;;;4879519;29;20069;-76
2023/08/08 13:41:17;;;;;;;7.20;1.95;;;19.00;98.20;;;;;;4879570;29;20132;-75
2023/08/08 13:43:43;;;;;;;15.57;1.85;;;19.90;98.10;;;;;;4879635;29;20132;-76
2023/08/08 13:46:09;;;;;;;13.93;2.42;;;18.50;97.80;;;;;;4886263;29;20071;-77
2023/08/08 13:48:38;;;;;;;11.27;1.70;;;;;;;;;;4864073;29;20468;-76
2023/08/08 13:51:04;;;;;;;5.50;1.70;;;;;;;;;;4879366;29;20045;-76
2023/08/08 13:53:30;;;;;;;9.18;1.80;;;;;;;;;;4895008;29;20045;-76
2023/08/08 13:55:56;;;;;;;8.95;1.55;;;19.80;95.10;;;;;;4895205;29;20129;-71
2023/08/08 13:58:22;;;;;;;9.98;2.17;;;;;;;;;;4895243;29;20495;-76
2023/08/08 14:00:51;;;;;;;18.40;2.40;;;20.30;96.80;;;;;;4879310;29;20100;-71